Bookmark and Share
Track history (hours):
 

Susquehanna

More information available from US FCC via Universal Licensing System and Coast Guard Vessel Documentation Center.

Last reported at 2014-Apr-13 12:11 UTC. Time now 2014-Apr-18 16:18 UTC.
Position N 40°56' W 073°55'.

Length 28 m; draft 4.2 m.

Type: Tug. MMSI: 367318750.

NotesDate/timePositionNaut miles runAvg speedWind from/ knotsBaromVisibWave heightAir tempDewpointWater temp
2014-Apr-13 12:11N 40°56' W 073°55'1 0.7
2014-Apr-13 11:16N 40°56' W 073°54'1 0.6
2014-Apr-13 10:06N 40°56' W 073°55'0 0.0
2014-Apr-13 09:19N 40°56' W 073°55'0 0.0
2014-Apr-13 08:31N 40°56' W 073°55'0 0.0
2014-Apr-13 07:26N 40°56' W 073°55'0 0.0
2014-Apr-13 06:21N 40°56' W 073°55'0 0.0
2014-Apr-13 02:12N 40°56' W 073°55'0 0.0
2014-Apr-13 01:33N 40°56' W 073°55'0 0.0
2014-Apr-12 12:27N 40°56' W 073°55'0 0.0
2014-Apr-12 11:30N 40°56' W 073°55'14 2.3
2014-Apr-12 05:33N 40°43' W 074°01'7 7.3
2014-Apr-12 04:33N 40°36' W 074°02'8 6.8
2014-Apr-12 03:22N 40°30' W 073°55'35 9.3
2014-Apr-11 23:33N 39°54' W 073°56'1010.0
2014-Apr-11 22:33N 39°44' W 073°58'1010.3
2014-Apr-11 21:33N 39°35' W 074°05'1010.3
2014-Apr-11 20:33N 39°26' W 074°11'  
2014-Apr-09 10:33N 39°38' W 074°03'8 7.6
2014-Apr-09 09:33N 39°44' W 073°58'8 7.6
2014-Apr-09 08:32N 39°52' W 073°57'43 7.1
2014-Apr-09 02:28N 40°35' W 074°02'4 4.0
2014-Apr-09 01:33N 40°38' W 074°04'  
2014-Apr-04 22:13N 40°44' W 074°01'5 7.8
2014-Apr-04 21:33N 40°39' W 074°03'10 7.6
2014-Apr-04 20:17N 40°30' W 073°58'43 9.0
2014-Apr-04 15:33N 39°48' W 073°57'9 9.5
2014-Apr-04 14:33N 39°39' W 074°02'10 9.6
2014-Apr-04 13:32N 39°30' W 074°08'  

Dump ship's entire track history

sailing weather and tide predictions

Susquehanna — WDD9976 — position and weather